SBMS Informação do Aeroporto

Informação da Pista
Runway 5 Length 6562 ft width 98 ft
Elevation 0 ft Threshold 0 ft Heading 0
Runway 23 Length 6562 ft Width 98 ft
Elevation 0 ft Threshold 0 ft Heading 0
Frequencias do Aeroporto
Tipo AFIS Nome MOSSORO RD Frequência 125.9 MHZ
Navaids Aeroporto
Tipo VOR-DME Name Mossoro Frequência 112400 KHZ
Tipo NDB Name Mossoro Frequência 275 KHZ
Tempo do Aeroporto & NOTAM
ADDS - METARS form results

(1937 UTC 10 April 2020)
Data provider http://aviationweather.gov/metar/data/
 
METAR text: SBMS 101900Z 03003KT 9999 SCT020 FEW030TCU BKN090 30/25 Q1009
Conditions at: SBMS (MOSSORO , BR) observed 1900 UTC 10 April 2020
Temperature: 30.0°C (86°F)
Dewpoint: 25.0°C (77°F) [RH = 75%]
Pressure (altimeter): 29.79 inches Hg (1009.0 mb)
Winds: from the NNE (30 degrees) at 3 MPH (3 knots; 1.5 m/s)
Visibility: 6 or more miles (10+ km)
Ceiling: 9000 feet AGL
Clouds: scattered clouds at 2000 feet AGL
few clouds at 3000 feet AGL
broken clouds at 9000 feet AGL
Weather: no significant weather observed at this time